Time,TemperatureF,DewpointF,PressureIn,WindDirection,WindDirectionDegrees,WindSpeedMPH,WindSpeedGustMPH,Humidity,HourlyPrecipIn,Conditions,Clouds,dailyrainin,SoftwareType,DateUTC
2013-01-02 00:02:00,35.0,-99.9,29.25,NE,54,1.0,4.0,-999,-99.99,,,-99.99,,2013-01-02 09:02:00,
2013-01-02 00:12:00,34.0,-99.9,29.25,North,11,2.0,3.0,-999,-99.99,,,-99.99,,2013-01-02 09:12:00,
2013-01-02 00:22:00,34.0,-99.9,29.26,NNW,334,1.0,2.0,-999,-99.99,,,-99.99,,2013-01-02 09:22:00,
2013-01-02 00:32:00,35.0,-99.9,29.26,NE,41,1.0,2.0,-999,-99.99,,,-99.99,,2013-01-02 09:32:00,
2013-01-02 00:43:00,34.0,-99.9,29.26,ENE,66,3.0,4.0,-999,-99.99,,,-99.99,,2013-01-02 09:43:00,
2013-01-02 00:53:00,35.0,-99.9,29.26,NE,56,3.0,4.0,-999,-99.99,,,-99.99,,2013-01-02 09:53:00,
2013-01-02 01:02:00,34.0,-99.9,29.27,NE,54,2.0,3.0,-999,-99.99,,,-99.99,,2013-01-02 10:02:00,
2013-01-02 01:12:00,34.0,-99.9,29.27,ENE,66,4.0,5.0,-999,-99.99,,,-99.99,,2013-01-02 10:12:00,
2013-01-02 01:22:00,34.0,-99.9,29.28,East,89,4.0,5.0,-999,-99.99,,,-99.99,,2013-01-02 10:22:00,
2013-01-02 01:32:00,34.0,-99.9,29.28,East,101,5.0,6.0,-999,-99.99,,,-99.99,,2013-01-02 10:32:00,
2013-01-02 01:43:00,34.0,-99.9,29.28,East,86,6.0,6.0,-999,-99.99,,,-99.99,,2013-01-02 10:43:00,
2013-01-02 01:53:00,34.0,-99.9,29.28,East,92,6.0,8.0,-999,-99.99,,,-99.99,,2013-01-02 10:53:00,
2013-01-02 02:02:00,35.0,-99.9,29.29,ESE,102,8.0,9.0,-999,-99.99,,,-99.99,,2013-01-02 11:02:00,
2013-01-02 02:12:00,37.0,-99.9,29.29,SE,137,11.0,18.0,-999,-99.99,,,-99.99,,2013-01-02 11:12:00,
2013-01-02 02:22:00,37.0,-99.9,29.29,SE,142,13.0,17.0,-999,-99.99,,,-99.99,,2013-01-02 11:22:00,
2013-01-02 02:33:00,37.0,-99.9,29.30,ESE,121,7.0,10.0,-999,-99.99,,,-99.99,,2013-01-02 11:33:00,
2013-01-02 02:43:00,37.0,-99.9,29.30,ESE,112,7.0,10.0,-999,-99.99,,,-99.99,,2013-01-02 11:43:00,
2013-01-02 02:53:00,36.0,-99.9,29.30,ESE,121,9.0,11.0,-999,-99.99,,,-99.99,,2013-01-02 11:53:00,
2013-01-02 03:03:00,37.0,-99.9,29.31,ESE,120,9.0,12.0,-999,-99.99,,,-99.99,,2013-01-02 12:03:00,
2013-01-02 03:12:00,37.0,-99.9,29.31,SE,128,9.0,12.0,-999,-99.99,,,-99.99,,2013-01-02 12:12:00,
2013-01-02 03:22:00,38.0,-99.9,29.31,SE,137,8.0,14.0,-999,-99.99,,,-99.99,,2013-01-02 12:22:00,
2013-01-02 03:33:00,36.0,-99.9,29.31,ESE,110,6.0,9.0,-999,-99.99,,,-99.99,,2013-01-02 12:33:00,
2013-01-02 03:43:00,36.0,-99.9,29.32,ESE,110,9.0,12.0,-999,-99.99,,,-99.99,,2013-01-02 12:43:00,
2013-01-02 03:53:00,35.0,-99.9,29.32,ESE,102,7.0,9.0,-999,-99.99,,,-99.99,,2013-01-02 12:53:00,
2013-01-02 04:03:00,35.0,-99.9,29.33,ESE,119,8.0,11.0,-999,-99.99,,,-99.99,,2013-01-02 13:03:00,
2013-01-02 04:13:00,35.0,-99.9,29.33,ESE,119,7.0,12.0,-999,-99.99,,,-99.99,,2013-01-02 13:13:00,
2013-01-02 04:22:00,35.0,-99.9,29.33,SE,134,7.0,10.0,-999,-99.99,,,-99.99,,2013-01-02 13:22:00,
2013-01-02 04:33:00,35.0,-99.9,29.34,ESE,122,9.0,11.0,-999,-99.99,,,-99.99,,2013-01-02 13:33:00,
2013-01-02 04:43:00,35.0,-99.9,29.34,ESE,122,9.0,11.0,-999,-99.99,,,-99.99,,2013-01-02 13:43:00,
2013-01-02 04:53:00,35.0,-99.9,29.34,ESE,113,9.0,11.0,-999,-99.99,,,-99.99,,2013-01-02 13:53:00,
2013-01-02 05:03:00,36.0,-99.9,29.34,SE,135,9.0,13.0,-999,-99.99,,,-99.99,,2013-01-02 14:03:00,
2013-01-02 05:12:00,35.0,-99.9,29.34,SE,130,9.0,14.0,-999,-99.99,,,-99.99,,2013-01-02 14:12:00,
2013-01-02 05:23:00,35.0,-99.9,29.34,ESE,119,8.0,12.0,-999,-99.99,,,-99.99,,2013-01-02 14:23:00,
2013-01-02 05:33:00,35.0,-99.9,29.34,ESE,123,8.0,11.0,-999,-99.99,,,-99.99,,2013-01-02 14:33:00,
2013-01-02 05:43:00,34.0,-99.9,29.35,ESE,112,9.0,11.0,-999,-99.99,,,-99.99,,2013-01-02 14:43:00,
2013-01-02 05:53:00,34.0,-99.9,29.35,SE,124,8.0,11.0,-999,-99.99,,,-99.99,,2013-01-02 14:53:00,
2013-01-02 06:03:00,34.0,-99.9,29.36,ESE,122,9.0,11.0,-999,-99.99,,,-99.99,,2013-01-02 15:03:00,
2013-01-02 06:12:00,34.0,-99.9,29.36,ESE,107,9.0,11.0,-999,-99.99,,,-99.99,,2013-01-02 15:12:00,
2013-01-02 06:23:00,34.0,-99.9,29.36,East,101,9.0,11.0,-999,-99.99,,,-99.99,,2013-01-02 15:23:00,
2013-01-02 06:33:00,34.0,-99.9,29.36,ESE,109,10.0,11.0,-999,-99.99,,,-99.99,,2013-01-02 15:33:00,
2013-01-02 06:43:00,34.0,-99.9,29.36,ESE,113,10.0,12.0,-999,-99.99,,,-99.99,,2013-01-02 15:43:00,
2013-01-02 06:53:00,34.0,-99.9,29.37,ESE,118,10.0,12.0,-999,-99.99,,,-99.99,,2013-01-02 15:53:00,
2013-01-02 07:03:00,34.0,-99.9,29.37,ESE,121,11.0,12.0,-999,-99.99,,,-99.99,,2013-01-02 16:03:00,
2013-01-02 07:13:00,35.0,-99.9,29.37,SE,131,10.0,13.0,-999,-99.99,,,-99.99,,2013-01-02 16:13:00,
2013-01-02 07:22:00,35.0,-99.9,29.38,SE,130,7.0,9.0,-999,-99.99,,,-99.99,,2013-01-02 16:22:00,
2013-01-02 07:33:00,36.0,-99.9,29.39,SSE,168,6.0,8.0,-999,-99.99,,,-99.99,,2013-01-02 16:33:00,
2013-01-02 07:43:00,35.0,-99.9,29.39,SSE,166,4.0,8.0,-999,-99.99,,,-99.99,,2013-01-02 16:43:00,
2013-01-02 07:54:00,34.0,-99.9,29.39,South,190,1.0,4.0,-999,-99.99,,,-99.99,,2013-01-02 16:54:00,
2013-01-02 08:04:00,34.0,-99.9,29.39,ENE,75,2.0,3.0,-999,-99.99,,,-99.99,,2013-01-02 17:04:00,
2013-01-02 08:13:00,34.0,-99.9,29.40,NE,55,2.0,4.0,-999,-99.99,,,-99.99,,2013-01-02 17:13:00,
2013-01-02 08:23:00,34.0,-99.9,29.40,NE,55,3.0,4.0,-999,-99.99,,,-99.99,,2013-01-02 17:23:00,
2013-01-02 08:33:00,33.0,-99.9,29.40,ENE,62,5.0,6.0,-999,-99.99,,,-99.99,,2013-01-02 17:33:00,
2013-01-02 08:43:00,34.0,-99.9,29.40,ENE,63,7.0,8.0,-999,-99.99,,,-99.99,,2013-01-02 17:43:00,
2013-01-02 08:54:00,34.0,-99.9,29.40,ENE,73,7.0,8.0,-999,-99.99,,,-99.99,,2013-01-02 17:54:00,
2013-01-02 09:03:00,34.0,-99.9,29.40,ENE,75,6.0,8.0,-999,-99.99,,,-99.99,,2013-01-02 18:03:00,
2013-01-02 09:13:00,34.0,-99.9,29.40,ENE,68,7.0,9.0,-999,-99.99,,,-99.99,,2013-01-02 18:13:00,
2013-01-02 09:23:00,34.0,-99.9,29.41,East,85,6.0,10.0,-999,-99.99,,,-99.99,,2013-01-02 18:23:00,
2013-01-02 09:33:00,34.0,-99.9,29.41,East,81,8.0,11.0,-999,-99.99,,,-99.99,,2013-01-02 18:33:00,
2013-01-02 09:43:00,34.0,-99.9,29.41,East,88,7.0,11.0,-999,-99.99,,,-99.99,,2013-01-02 18:43:00,
2013-01-02 09:53:00,34.0,-99.9,29.41,East,85,8.0,10.0,-999,-99.99,,,-99.99,,2013-01-02 18:53:00,
2013-01-02 10:03:00,34.0,-99.9,29.42,SE,125,4.0,6.0,-999,-99.99,,,-99.99,,2013-01-02 19:03:00,
2013-01-02 10:13:00,35.0,-99.9,29.42,SE,134,6.0,7.0,-999,-99.99,,,-99.99,,2013-01-02 19:13:00,
2013-01-02 10:23:00,35.0,-99.9,29.43,ESE,117,5.0,7.0,-999,-99.99,,,-99.99,,2013-01-02 19:23:00,
2013-01-02 10:33:00,35.0,-99.9,29.43,East,95,3.0,7.0,-999,-99.99,,,-99.99,,2013-01-02 19:33:00,
2013-01-02 10:43:00,34.0,-99.9,29.44,East,93,4.0,6.0,-999,-99.99,,,-99.99,,2013-01-02 19:43:00,
2013-01-02 10:53:00,35.0,-99.9,29.44,ENE,65,5.0,6.0,-999,-99.99,,,-99.99,,2013-01-02 19:53:00,
2013-01-02 11:03:00,35.0,-99.9,29.44,ENE,58,4.0,6.0,-999,-99.99,,,-99.99,,2013-01-02 20:03:00,
2013-01-02 11:12:00,34.0,-99.9,29.45,ENE,76,3.0,5.0,-999,-99.99,,,-99.99,,2013-01-02 20:12:00,
2013-01-02 11:23:00,34.0,-99.9,29.45,ENE,72,3.0,5.0,-999,-99.99,,,-99.99,,2013-01-02 20:23:00,
2013-01-02 11:33:00,35.0,-99.9,29.45,East,83,6.0,7.0,-999,-99.99,,,-99.99,,2013-01-02 20:33:00,
2013-01-02 11:42:00,35.0,-99.9,29.45,ENE,77,8.0,9.0,-999,-99.99,,,-99.99,,2013-01-02 20:42:00,
2013-01-02 11:53:00,35.0,-99.9,29.45,East,84,8.0,10.0,-999,-99.99,,,-99.99,,2013-01-02 20:53:00,
2013-01-02 12:03:00,35.0,-99.9,29.45,East,80,8.0,11.0,-999,-99.99,,,-99.99,,2013-01-02 21:03:00,
2013-01-02 12:13:00,35.0,-99.9,29.45,East,92,8.0,9.0,-999,-99.99,,,-99.99,,2013-01-02 21:13:00,
2013-01-02 12:23:00,36.0,-99.9,29.45,East,99,7.0,11.0,-999,-99.99,,,-99.99,,2013-01-02 21:23:00,
2013-01-02 12:33:00,35.0,-99.9,29.46,East,92,9.0,11.0,-999,-99.99,,,-99.99,,2013-01-02 21:33:00,
2013-01-02 12:43:00,35.0,-99.9,29.46,East,90,10.0,11.0,-999,-99.99,,,-99.99,,2013-01-02 21:43:00,
2013-01-02 12:53:00,34.0,-99.9,29.45,East,82,7.0,10.0,-999,-99.99,,,-99.99,,2013-01-02 21:53:00,
2013-01-02 13:03:00,34.0,-99.9,29.46,East,81,10.0,12.0,-999,-99.99,,,-99.99,,2013-01-02 22:03:00,
2013-01-02 13:13:00,34.0,-99.9,29.46,East,83,8.0,11.0,-999,-99.99,,,-99.99,,2013-01-02 22:13:00,
2013-01-02 13:22:00,34.0,-99.9,29.46,East,80,7.0,9.0,-999,-99.99,,,-99.99,,2013-01-02 22:22:00,
2013-01-02 13:33:00,35.0,-99.9,29.47,ENE,78,9.0,10.0,-999,-99.99,,,-99.99,,2013-01-02 22:33:00,
2013-01-02 13:43:00,34.0,-99.9,29.47,ENE,74,9.0,11.0,-999,-99.99,,,-99.99,,2013-01-02 22:43:00,
2013-01-02 13:53:00,34.0,-99.9,29.47,ENE,74,9.0,12.0,-999,-99.99,,,-99.99,,2013-01-02 22:53:00,
2013-01-02 14:03:00,35.0,-99.9,29.47,ENE,68,6.0,9.0,-999,-99.99,,,-99.99,,2013-01-02 23:03:00,
2013-01-02 14:13:00,35.0,-99.9,29.47,ENE,75,3.0,8.0,-999,-99.99,,,-99.99,,2013-01-02 23:13:00,
2013-01-02 14:23:00,35.0,-99.9,29.47,ENE,70,5.0,7.0,-999,-99.99,,,-99.99,,2013-01-02 23:23:00,
2013-01-02 14:33:00,36.0,-99.9,29.47,East,85,6.0,7.0,-999,-99.99,,,-99.99,,2013-01-02 23:33:00,
2013-01-02 14:43:00,36.0,-99.9,29.47,ENE,71,6.0,8.0,-999,-99.99,,,-99.99,,2013-01-02 23:43:00,
2013-01-02 14:53:00,36.0,-99.9,29.47,ENE,69,6.0,7.0,-999,-99.99,,,-99.99,,2013-01-02 23:53:00,
2013-01-02 15:02:00,36.0,-99.9,29.47,East,92,4.0,6.0,-999,-99.99,,,-99.99,,2013-01-03 00:02:00,
2013-01-02 15:12:00,36.0,-99.9,29.47,East,93,4.0,6.0,-999,-99.99,,,-99.99,,2013-01-03 00:12:00,
2013-01-02 15:22:00,36.0,-99.9,29.47,ENE,75,3.0,5.0,-999,-99.99,,,-99.99,,2013-01-03 00:22:00,
2013-01-02 15:38:00,36.0,-99.9,29.47,East,83,6.0,6.0,-999,-99.99,,,-99.99,,2013-01-03 00:38:00,
2013-01-02 15:53:00,36.0,-99.9,29.47,East,93,4.0,6.0,-999,-99.99,,,-99.99,,2013-01-03 00:53:00,
2013-01-02 16:02:00,36.0,-99.9,29.47,East,85,3.0,4.0,-999,-99.99,,,-99.99,,2013-01-03 01:02:00,
2013-01-02 16:12:00,35.0,-99.9,29.47,East,86,6.0,9.0,-999,-99.99,,,-99.99,,2013-01-03 01:12:00,
2013-01-02 16:23:00,36.0,-99.9,29.47,East,96,6.0,8.0,-999,-99.99,,,-99.99,,2013-01-03 01:23:00,
2013-01-02 16:33:00,35.0,-99.9,29.48,ESE,108,7.0,8.0,-999,-99.99,,,-99.99,,2013-01-03 01:33:00,
2013-01-02 16:43:00,35.0,-99.9,29.48,East,83,5.0,8.0,-999,-99.99,,,-99.99,,2013-01-03 01:43:00,
2013-01-02 16:53:00,35.0,-99.9,29.48,East,87,6.0,8.0,-999,-99.99,,,-99.99,,2013-01-03 01:53:00,
2013-01-02 17:02:00,35.0,-99.9,29.48,East,83,8.0,9.0,-999,-99.99,,,-99.99,,2013-01-03 02:02:00,
2013-01-02 17:12:00,35.0,-99.9,29.47,East,83,7.0,10.0,-999,-99.99,,,-99.99,,2013-01-03 02:12:00,
2013-01-02 17:23:00,34.0,-99.9,29.48,East,93,8.0,10.0,-999,-99.99,,,-99.99,,2013-01-03 02:23:00,
2013-01-02 17:33:00,34.0,-99.9,29.48,East,93,6.0,10.0,-999,-99.99,,,-99.99,,2013-01-03 02:33:00,
2013-01-02 17:43:00,34.0,-99.9,29.48,East,93,6.0,10.0,-999,-99.99,,,-99.99,,2013-01-03 02:43:00,
2013-01-02 17:53:00,34.0,-99.9,29.48,East,93,6.0,10.0,-999,-99.99,,,-99.99,,2013-01-03 02:53:00,
2013-01-02 18:03:00,33.0,-99.9,29.49,East,89,6.0,8.0,-999,-99.99,,,-99.99,,2013-01-03 03:03:00,
2013-01-02 18:12:00,35.0,-99.9,29.49,East,92,9.0,10.0,-999,-99.99,,,-99.99,,2013-01-03 03:12:00,
2013-01-02 18:22:00,35.0,-99.9,29.49,East,93,8.0,11.0,-999,-99.99,,,-99.99,,2013-01-03 03:22:00,
2013-01-02 18:47:00,33.0,-99.9,29.49,ENE,59,9.0,9.0,-999,-99.99,,,-99.99,,2013-01-03 03:47:00,
2013-01-02 18:53:00,33.0,-99.9,29.49,ENE,77,8.0,9.0,-999,-99.99,,,-99.99,,2013-01-03 03:53:00,
2013-01-02 19:03:00,32.0,-99.9,29.49,ENE,68,5.0,8.0,-999,-99.99,,,-99.99,,2013-01-03 04:03:00,
2013-01-02 19:12:00,-999.0,-99.9,29.49,ENE,73,4.0,6.0,-999,-99.99,,,-99.99,,2013-01-03 04:12:00,
2013-01-02 19:22:00,-999.0,-99.9,29.49,ENE,77,4.0,7.0,-999,-99.99,,,-99.99,,2013-01-03 04:22:00,
2013-01-02 19:33:00,-999.0,-99.9,29.49,NE,51,6.0,9.0,-999,-99.99,,,-99.99,,2013-01-03 04:33:00,
2013-01-02 19:43:00,-999.0,-99.9,29.49,ENE,59,4.0,7.0,-999,-99.99,,,-99.99,,2013-01-03 04:43:00,
2013-01-02 19:53:00,31.0,-99.9,29.49,NE,53,4.0,6.0,-999,-99.99,,,-99.99,,2013-01-03 04:53:00,
2013-01-02 20:03:00,-999.0,-99.9,29.49,NE,51,7.0,10.0,-999,-99.99,,,-99.99,,2013-01-03 05:03:00,
2013-01-02 20:12:00,32.0,-99.9,29.49,NE,52,9.0,11.0,-999,-99.99,,,-99.99,,2013-01-03 05:12:00,
2013-01-02 20:23:00,-999.0,-99.9,29.49,NE,50,9.0,11.0,-999,-99.99,,,-99.99,,2013-01-03 05:23:00,
2013-01-02 20:33:00,-999.0,-99.9,29.49,NE,50,11.0,13.0,-999,-99.99,,,-99.99,,2013-01-03 05:33:00,
2013-01-02 20:42:00,32.0,-99.9,29.49,NE,50,11.0,13.0,-999,-99.99,,,-99.99,,2013-01-03 05:42:00,
2013-01-02 20:53:00,-999.0,-99.9,29.49,ENE,58,11.0,14.0,-999,-99.99,,,-99.99,,2013-01-03 05:53:00,
2013-01-02 21:03:00,33.0,-99.9,29.49,NE,55,9.0,12.0,-999,-99.99,,,-99.99,,2013-01-03 06:03:00,
2013-01-02 21:12:00,32.0,-99.9,29.49,NE,53,8.0,10.0,-999,-99.99,,,-99.99,,2013-01-03 06:12:00,
2013-01-02 21:22:00,32.0,-99.9,29.49,NE,53,6.0,9.0,-999,-99.99,,,-99.99,,2013-01-03 06:22:00,
2013-01-02 21:33:00,-999.0,-99.9,29.49,East,79,6.0,11.0,-999,-99.99,,,-99.99,,2013-01-03 06:33:00,
2013-01-02 21:43:00,33.0,-99.9,29.49,ENE,74,7.0,10.0,-999,-99.99,,,-99.99,,2013-01-03 06:43:00,
2013-01-02 21:53:00,33.0,-99.9,29.49,East,79,8.0,11.0,-999,-99.99,,,-99.99,,2013-01-03 06:53:00,
2013-01-02 22:02:00,33.0,-99.9,29.49,ENE,62,11.0,13.0,-999,-99.99,,,-99.99,,2013-01-03 07:02:00,
2013-01-02 22:12:00,33.0,-99.9,29.49,ENE,60,10.0,12.0,-999,-99.99,,,-99.99,,2013-01-03 07:12:00,
2013-01-02 22:22:00,33.0,-99.9,29.49,NE,55,10.0,12.0,-999,-99.99,,,-99.99,,2013-01-03 07:22:00,
2013-01-02 22:33:00,33.0,-99.9,29.49,ENE,61,11.0,14.0,-999,-99.99,,,-99.99,,2013-01-03 07:33:00,
2013-01-02 22:43:00,33.0,-99.9,29.49,ENE,71,9.0,15.0,-999,-99.99,,,-99.99,,2013-01-03 07:43:00,
2013-01-02 22:53:00,33.0,-99.9,29.49,ENE,70,10.0,12.0,-999,-99.99,,,-99.99,,2013-01-03 07:53:00,
2013-01-02 23:02:00,33.0,-99.9,29.49,ENE,69,9.0,13.0,-999,-99.99,,,-99.99,,2013-01-03 08:02:00,
2013-01-02 23:12:00,34.0,-99.9,29.49,ENE,72,10.0,13.0,-999,-99.99,,,-99.99,,2013-01-03 08:12:00,
2013-01-02 23:23:00,34.0,-99.9,29.49,ENE,66,10.0,12.0,-999,-99.99,,,-99.99,,2013-01-03 08:23:00,
2013-01-02 23:33:00,34.0,-99.9,29.49,ENE,69,10.0,13.0,-999,-99.99,,,-99.99,,2013-01-03 08:33:00,
2013-01-02 23:43:00,35.0,-99.9,29.49,ENE,71,10.0,14.0,-999,-99.99,,,-99.99,,2013-01-03 08:43:00,
2013-01-02 23:53:00,35.0,-99.9,29.49,ENE,63,10.0,13.0,-999,-99.99,,,-99.99,,2013-01-03 08:53:00,